GEC8463 LTFM-EDDF

Flight info

Callsign GEC8463
Flight time 2h 41m
Altitude 34000
Route VADEN N618 BAKLO DCT XANEX DCT UTEKA DCT TUVAR DCT OBUTI DCT GOLVA DCT SIMBA DCT AKINI T161 ERNAS/N0456F320 T161 DEBHI DEBHI1D
Aircraft B77L/H-SDE2E3FGHIJ1J3J4J5M1P2RWXYZ/LB1D1

Departure

Time 2026-04-07 11:21
Airport İstanbul Airport (LTFM)

Arrival

Time 2026-04-07 14:03
Airport Frankfurt Main Airport (EDDF)
Time Latitude Longitude Altitude Speed Heading
2026-04-07 10:56 41.27696 28.71352 334 ft 0 kts 88°
2026-04-07 11:11 41.27696 28.71351 335 ft 2 kts 88°
2026-04-07 11:11 41.27696 28.71317 335 ft 4 kts 92°
2026-04-07 11:12 41.27698 28.71282 333 ft 4 kts 97°
2026-04-07 11:12 41.27703 28.71246 333 ft 4 kts 104°
2026-04-07 11:12 41.27711 28.71213 333 ft 4 kts 120°
2026-04-07 11:12 41.27727 28.71190 333 ft 4 kts 169°
2026-04-07 11:13 41.27732 28.71188 333 ft 2 kts 179°
2026-04-07 11:15 41.27730 28.71188 333 ft 1 kts 179°
2026-04-07 11:15 41.27697 28.71189 333 ft 9 kts 179°
2026-04-07 11:16 41.27614 28.71191 334 ft 13 kts 179°
2026-04-07 11:16 41.27521 28.71193 338 ft 14 kts 179°
2026-04-07 11:16 41.27426 28.71195 334 ft 14 kts 179°
2026-04-07 11:16 41.27326 28.71197 334 ft 14 kts 179°
2026-04-07 11:17 41.27225 28.71200 336 ft 15 kts 179°
2026-04-07 11:17 41.27120 28.71203 335 ft 15 kts 179°
2026-04-07 11:17 41.27014 28.71206 333 ft 16 kts 179°
2026-04-07 11:17 41.26906 28.71208 335 ft 16 kts 179°
2026-04-07 11:18 41.26793 28.71212 334 ft 16 kts 179°
2026-04-07 11:18 41.26701 28.71231 336 ft 12 kts 136°
2026-04-07 11:18 41.26695 28.71344 335 ft 13 kts 88°
2026-04-07 11:18 41.26698 28.71478 335 ft 16 kts 89°
2026-04-07 11:19 41.26700 28.71633 334 ft 18 kts 89°
2026-04-07 11:19 41.26702 28.71808 335 ft 20 kts 89°
2026-04-07 11:19 41.26705 28.71993 338 ft 20 kts 89°
2026-04-07 11:19 41.26709 28.72176 335 ft 20 kts 88°
2026-04-07 11:20 41.26709 28.72347 335 ft 16 kts 90°
2026-04-07 11:20 41.26715 28.72478 334 ft 11 kts 66°
2026-04-07 11:20 41.26788 28.72513 334 ft 17 kts
2026-04-07 11:20 41.27052 28.72507 335 ft 71 kts 359°
2026-04-07 11:21 41.27808 28.72492 337 ft 144 kts 359°
2026-04-07 11:21 41.28962 28.72462 596 ft 175 kts
2026-04-07 11:21 41.30174 28.72442 1446 ft 173 kts
2026-04-07 11:21 41.31381 28.72454 2286 ft 176 kts 359°
2026-04-07 11:22 41.32643 28.72479 2921 ft 191 kts 356°
2026-04-07 11:22 41.34050 28.72502 3360 ft 214 kts 356°
2026-04-07 11:22 41.35609 28.72527 3903 ft 233 kts 355°
2026-04-07 11:22 41.37249 28.72300 4493 ft 238 kts 334°
2026-04-07 11:23 41.38630 28.71163 5491 ft 233 kts 317°
2026-04-07 11:23 41.39700 28.69559 6564 ft 232 kts 304°
2026-04-07 11:23 41.40557 28.67723 7486 ft 237 kts 301°
2026-04-07 11:23 41.41397 28.65803 8358 ft 242 kts 300°
2026-04-07 11:24 41.42250 28.63846 9271 ft 247 kts 300°
2026-04-07 11:24 41.43123 28.61851 10185 ft 251 kts 299°
2026-04-07 11:24 41.44034 28.59783 10693 ft 271 kts 300°
2026-04-07 11:24 41.45045 28.57499 10904 ft 300 kts 300°
2026-04-07 11:25 41.47310 28.52421 12082 ft 329 kts 300°
2026-04-07 11:25 41.48496 28.49778 13023 ft 333 kts 300°
2026-04-07 11:25 41.49689 28.47119 14007 ft 336 kts 300°
2026-04-07 11:26 41.50896 28.44427 14839 ft 341 kts 301°
2026-04-07 11:26 41.52122 28.41692 15657 ft 345 kts 301°
2026-04-07 11:26 41.53362 28.38925 16515 ft 349 kts 302°
2026-04-07 11:26 41.54615 28.36126 17363 ft 353 kts 302°
2026-04-07 11:27 41.55884 28.33290 18192 ft 358 kts 302°
2026-04-07 11:27 41.57165 28.30423 18940 ft 362 kts 302°
2026-04-07 11:27 41.58430 28.27496 19677 ft 366 kts 300°
2026-04-07 11:27 41.59600 28.24460 20408 ft 370 kts 299°
2026-04-07 11:28 41.60743 28.21366 21177 ft 372 kts 299°
2026-04-07 11:28 41.61893 28.18250 21901 ft 376 kts 299°
2026-04-07 11:28 41.63067 28.15095 22600 ft 381 kts 299°
2026-04-07 11:28 41.64258 28.11916 23312 ft 385 kts 299°
2026-04-07 11:29 41.65467 28.08705 23970 ft 389 kts 299°
2026-04-07 11:29 41.66689 28.05461 24560 ft 393 kts 300°
2026-04-07 11:29 41.67941 28.02194 25141 ft 396 kts 302°
2026-04-07 11:29 41.69341 27.99070 25733 ft 398 kts 305°
2026-04-07 11:30 41.70863 27.95965 26333 ft 401 kts 306°
2026-04-07 11:30 41.72424 27.92855 26931 ft 405 kts 306°
2026-04-07 11:30 41.73997 27.89710 27522 ft 409 kts 306°
2026-04-07 11:30 41.75572 27.86525 28120 ft 412 kts 306°
2026-04-07 11:31 41.76939 27.83733 28632 ft 416 kts 306°
2026-04-07 11:31 41.78542 27.80431 29199 ft 420 kts 306°
2026-04-07 11:31 41.80138 27.77125 29784 ft 424 kts 306°
2026-04-07 11:31 41.81740 27.73795 30369 ft 426 kts 306°
2026-04-07 11:32 41.83336 27.70468 31109 ft 422 kts 306°
2026-04-07 11:32 41.84912 27.67174 31897 ft 417 kts 306°
2026-04-07 11:32 41.86476 27.63909 32569 ft 415 kts 306°
2026-04-07 11:32 41.88033 27.60657 33182 ft 414 kts 306°
2026-04-07 11:33 41.89589 27.57403 33775 ft 413 kts 306°
2026-04-07 11:33 41.91144 27.54149 34113 ft 417 kts 306°
2026-04-07 11:33 41.94279 27.47577 34087 ft 415 kts 306°
2026-04-07 11:34 41.97368 27.41084 34078 ft 412 kts 307°
2026-04-07 11:34 42.00459 27.34576 34095 ft 413 kts 306°
2026-04-07 11:35 42.03551 27.28053 34094 ft 414 kts 306°
2026-04-07 11:35 42.06647 27.21536 34087 ft 412 kts 308°
2026-04-07 11:36 42.10305 27.15695 34070 ft 408 kts 315°
2026-04-07 11:36 42.14166 27.10100 34084 ft 408 kts 315°
2026-04-07 11:37 42.17990 27.04455 34089 ft 408 kts 315°
2026-04-07 11:37 42.21788 26.98751 34081 ft 409 kts 315°
2026-04-07 11:38 42.25578 26.93020 34078 ft 409 kts 315°
2026-04-07 11:38 42.29354 26.87294 34083 ft 408 kts 315°
2026-04-07 11:39 42.33104 26.81599 34092 ft 408 kts 314°
2026-04-07 11:39 42.36884 26.75846 34083 ft 406 kts 314°
2026-04-07 11:40 42.40601 26.70181 34078 ft 404 kts 314°
2026-04-07 11:40 42.44347 26.64459 34074 ft 403 kts 314°
2026-04-07 11:41 42.48032 26.58819 34084 ft 403 kts 314°
2026-04-07 11:41 42.51743 26.53132 34076 ft 403 kts 314°
2026-04-07 11:42 42.55131 26.47030 34070 ft 408 kts 307°
2026-04-07 11:42 42.57880 26.40250 34082 ft 411 kts 303°
2026-04-07 11:43 42.60570 26.33382 34078 ft 412 kts 303°
2026-04-07 11:43 42.63266 26.26508 34081 ft 413 kts 303°
2026-04-07 11:44 42.65510 26.20793 34062 ft 413 kts 303°
2026-04-07 11:44 42.68212 26.13900 34096 ft 415 kts 302°
2026-04-07 11:45 42.70931 26.06954 34075 ft 417 kts 302°
2026-04-07 11:45 42.73645 26.00002 34078 ft 415 kts 302°
2026-04-07 11:46 42.76341 25.93072 34076 ft 414 kts 302°
2026-04-07 11:46 42.79021 25.86171 34093 ft 412 kts 302°
2026-04-07 11:47 42.81697 25.79267 34091 ft 412 kts 302°
2026-04-07 11:47 42.84370 25.72351 34085 ft 412 kts 302°
2026-04-07 11:48 42.87040 25.65432 34091 ft 413 kts 302°
2026-04-07 11:48 42.89712 25.58481 34094 ft 414 kts 302°
2026-04-07 11:49 42.92387 25.51509 34102 ft 415 kts 302°
2026-04-07 11:49 42.95061 25.44525 34099 ft 416 kts 302°
2026-04-07 11:50 42.97714 25.37576 34104 ft 415 kts 302°
2026-04-07 11:50 43.00392 25.30544 34104 ft 414 kts 302°
2026-04-07 11:51 43.03043 25.23565 34112 ft 413 kts 302°
2026-04-07 11:51 43.05688 25.16589 34114 ft 414 kts 302°
2026-04-07 11:52 43.08333 25.09593 34113 ft 414 kts 302°
2026-04-07 11:52 43.10960 25.02627 34116 ft 415 kts 302°
2026-04-07 11:53 43.13523 24.95530 34112 ft 418 kts 299°
2026-04-07 11:53 43.15848 24.88223 34116 ft 419 kts 298°
2026-04-07 11:54 43.18152 24.80885 34120 ft 420 kts 298°
2026-04-07 11:54 43.20462 24.73545 34119 ft 420 kts 298°
2026-04-07 11:55 43.22777 24.66194 34123 ft 420 kts 298°
2026-04-07 11:55 43.25091 24.58831 34154 ft 420 kts 298°
2026-04-07 11:56 43.27396 24.51479 34132 ft 418 kts 298°
2026-04-07 11:56 43.29684 24.44160 34120 ft 416 kts 298°
2026-04-07 11:57 43.31960 24.36861 34126 ft 416 kts 298°
2026-04-07 11:57 43.34231 24.29557 34137 ft 416 kts 298°
2026-04-07 11:58 43.36499 24.22245 34130 ft 416 kts 298°
2026-04-07 11:58 43.38766 24.14912 34115 ft 417 kts 298°
2026-04-07 11:59 43.41038 24.07546 34130 ft 419 kts 298°
2026-04-07 11:59 43.43311 24.00152 34132 ft 421 kts 298°
2026-04-07 12:00 43.45591 23.92716 34133 ft 422 kts 298°
2026-04-07 12:00 43.47867 23.85268 34117 ft 422 kts 298°
2026-04-07 12:01 43.50124 23.77862 34132 ft 422 kts 298°
2026-04-07 12:01 43.52391 23.70402 34133 ft 422 kts 298°
2026-04-07 12:02 43.54652 23.62939 34134 ft 422 kts 298°
2026-04-07 12:02 43.56909 23.55472 34131 ft 422 kts 297°
2026-04-07 12:03 43.59160 23.47999 34125 ft 422 kts 297°
2026-04-07 12:03 43.61407 23.40520 34131 ft 422 kts 297°
2026-04-07 12:04 43.63654 23.33019 34140 ft 423 kts 297°
2026-04-07 12:04 43.65895 23.25514 34136 ft 423 kts 297°
2026-04-07 12:05 43.68132 23.18002 34133 ft 423 kts 297°
2026-04-07 12:05 43.70369 23.10467 34137 ft 424 kts 297°
2026-04-07 12:06 43.72603 23.02920 34134 ft 425 kts 297°
2026-04-07 12:06 43.74834 22.95361 34137 ft 424 kts 297°
2026-04-07 12:07 43.77060 22.87796 34138 ft 424 kts 297°
2026-04-07 12:07 43.79278 22.80236 34140 ft 424 kts 297°
2026-04-07 12:08 43.81489 22.72676 34158 ft 423 kts 297°
2026-04-07 12:08 43.83696 22.65111 34155 ft 424 kts 297°
2026-04-07 12:09 43.85896 22.57540 34109 ft 424 kts 296°
2026-04-07 12:09 43.88093 22.49960 34140 ft 424 kts 296°
2026-04-07 12:10 43.90288 22.42371 34149 ft 425 kts 296°
2026-04-07 12:10 43.92761 22.35038 34150 ft 421 kts 302°
2026-04-07 12:11 43.95579 22.27847 34163 ft 421 kts 302°
2026-04-07 12:11 43.98366 22.20703 34147 ft 421 kts 302°
2026-04-07 12:12 44.01133 22.13555 34157 ft 419 kts 302°
2026-04-07 12:12 44.03878 22.06424 34163 ft 418 kts 302°
2026-04-07 12:13 44.06599 21.99338 34145 ft 418 kts 302°
2026-04-07 12:13 44.09334 21.92201 34154 ft 420 kts 302°
2026-04-07 12:14 44.12086 21.85000 34176 ft 423 kts 302°
2026-04-07 12:14 44.14855 21.77735 34178 ft 426 kts 302°
2026-04-07 12:15 44.17629 21.70435 34193 ft 427 kts 301°
2026-04-07 12:15 44.20405 21.63110 34176 ft 427 kts 301°
2026-04-07 12:16 44.23175 21.55780 34185 ft 427 kts 301°
2026-04-07 12:16 44.25932 21.48467 34203 ft 426 kts 301°
2026-04-07 12:17 44.28682 21.41154 34192 ft 425 kts 301°
2026-04-07 12:17 44.31426 21.33840 34194 ft 425 kts 301°
2026-04-07 12:18 44.34163 21.26525 34197 ft 425 kts 301°
2026-04-07 12:18 44.36900 21.19189 34214 ft 425 kts 301°
2026-04-07 12:19 44.39625 21.11865 34205 ft 424 kts 301°
2026-04-07 12:19 44.42337 21.04557 34180 ft 423 kts 301°
2026-04-07 12:20 44.45041 20.97254 34200 ft 423 kts 301°
2026-04-07 12:20 44.47742 20.89939 34204 ft 423 kts 301°
2026-04-07 12:21 44.50425 20.82652 34215 ft 424 kts 301°
2026-04-07 12:21 44.53124 20.75303 34212 ft 425 kts 301°
2026-04-07 12:22 44.55824 20.67931 34210 ft 425 kts 301°
2026-04-07 12:22 44.58520 20.60550 34210 ft 426 kts 300°
2026-04-07 12:23 44.61216 20.53150 34220 ft 426 kts 300°
2026-04-07 12:23 44.63907 20.45742 34214 ft 426 kts 300°
2026-04-07 12:24 44.66595 20.38323 34210 ft 426 kts 300°
2026-04-07 12:24 44.69279 20.30893 34215 ft 427 kts 300°
2026-04-07 12:25 44.71965 20.23442 34216 ft 427 kts 300°
2026-04-07 12:25 44.74645 20.15985 34213 ft 428 kts 300°
2026-04-07 12:26 44.77322 20.08514 34221 ft 427 kts 300°
2026-04-07 12:26 44.79991 20.01045 34215 ft 427 kts 300°
2026-04-07 12:27 44.82653 19.93576 34216 ft 426 kts 300°
2026-04-07 12:27 44.85302 19.86122 34218 ft 425 kts 300°
2026-04-07 12:28 44.87944 19.78667 34199 ft 425 kts 300°
2026-04-07 12:29 44.91899 19.67474 34215 ft 425 kts 300°
2026-04-07 12:29 44.94534 19.59988 34220 ft 426 kts 300°
2026-04-07 12:30 44.97167 19.52488 34219 ft 427 kts 300°
2026-04-07 12:30 44.99779 19.45024 34196 ft 427 kts 299°
2026-04-07 12:31 45.02410 19.37487 34210 ft 428 kts 299°
2026-04-07 12:31 45.05040 19.29932 34214 ft 429 kts 299°
2026-04-07 12:32 45.07669 19.22357 34218 ft 429 kts 299°
2026-04-07 12:32 45.09852 19.16054 34211 ft 429 kts 299°
2026-04-07 12:33 45.12489 19.08486 34219 ft 428 kts 301°
2026-04-07 12:33 45.15645 19.01387 34211 ft 425 kts 306°
2026-04-07 12:34 45.18937 18.94415 34207 ft 425 kts 306°
2026-04-07 12:34 45.22212 18.87426 34229 ft 425 kts 306°
2026-04-07 12:35 45.25474 18.80422 34193 ft 426 kts 306°
2026-04-07 12:35 45.28733 18.73394 34209 ft 426 kts 306°
2026-04-07 12:36 45.31992 18.66344 34209 ft 427 kts 306°
2026-04-07 12:36 45.35247 18.59287 34195 ft 428 kts 306°
2026-04-07 12:37 45.38504 18.52208 34211 ft 427 kts 306°
2026-04-07 12:37 45.41757 18.45122 34193 ft 428 kts 306°
2026-04-07 12:38 45.45010 18.38018 34204 ft 429 kts 306°
2026-04-07 12:38 45.48262 18.30895 34212 ft 429 kts 306°
2026-04-07 12:39 45.51510 18.23767 34211 ft 429 kts 306°
2026-04-07 12:39 45.54748 18.16640 34188 ft 428 kts 305°
2026-04-07 12:40 45.57958 18.09559 34196 ft 427 kts 305°
2026-04-07 12:40 45.61179 18.02435 34196 ft 427 kts 305°
2026-04-07 12:41 45.64394 17.95305 34199 ft 427 kts 305°
2026-04-07 12:41 45.67604 17.88169 34173 ft 427 kts 305°
2026-04-07 12:42 45.70819 17.81007 34196 ft 429 kts 305°
2026-04-07 12:42 45.74050 17.73789 34207 ft 431 kts 305°
2026-04-07 12:43 45.77283 17.66545 34203 ft 433 kts 305°
2026-04-07 12:43 45.80521 17.59274 34199 ft 433 kts 305°
2026-04-07 12:44 45.83754 17.51992 34192 ft 433 kts 305°
2026-04-07 12:44 45.86979 17.44712 34197 ft 432 kts 305°
2026-04-07 12:45 45.90194 17.37436 34200 ft 432 kts 304°
2026-04-07 12:45 45.93403 17.30155 34202 ft 431 kts 304°
2026-04-07 12:46 45.96604 17.22872 34189 ft 431 kts 304°
2026-04-07 12:46 45.99804 17.15573 34194 ft 431 kts 304°
2026-04-07 12:47 46.03002 17.08258 34204 ft 432 kts 304°
2026-04-07 12:47 46.06180 17.00972 34200 ft 433 kts 304°
2026-04-07 12:48 46.09398 16.93573 34205 ft 434 kts 304°
2026-04-07 12:48 46.12577 16.86246 34185 ft 434 kts 304°
2026-04-07 12:49 46.15775 16.78853 34202 ft 435 kts 304°
2026-04-07 12:49 46.18972 16.71443 34202 ft 435 kts 304°
2026-04-07 12:50 46.22162 16.64030 34191 ft 435 kts 304°
2026-04-07 12:50 46.25344 16.56617 34171 ft 434 kts 304°
2026-04-07 12:51 46.28527 16.49182 34184 ft 435 kts 304°
2026-04-07 12:51 46.31707 16.41732 34186 ft 436 kts 304°
2026-04-07 12:52 46.34886 16.34268 34189 ft 436 kts 304°
2026-04-07 12:52 46.38106 16.26812 34188 ft 436 kts 307°
2026-04-07 12:53 46.41790 16.19871 34192 ft 435 kts 310°
2026-04-07 12:53 46.45537 16.12960 34203 ft 436 kts 310°
2026-04-07 12:54 46.49260 16.06028 34182 ft 435 kts 309°
2026-04-07 12:54 46.52961 15.99092 34177 ft 434 kts 309°
2026-04-07 12:55 46.56651 15.92155 34184 ft 433 kts 309°
2026-04-07 12:55 46.60332 15.85216 34181 ft 433 kts 309°
2026-04-07 12:56 46.64005 15.78276 34176 ft 433 kts 309°
2026-04-07 12:56 46.67676 15.71324 34195 ft 433 kts 309°
2026-04-07 12:57 46.71365 15.64398 34175 ft 432 kts 311°
2026-04-07 12:57 46.75307 15.57797 34173 ft 432 kts 313°
2026-04-07 12:58 46.79307 15.51235 34172 ft 433 kts 313°
2026-04-07 12:58 46.83299 15.44646 34171 ft 434 kts 313°
2026-04-07 12:59 46.87286 15.38017 34172 ft 434 kts 313°
2026-04-07 12:59 46.91268 15.31368 34191 ft 435 kts 313°
2026-04-07 13:00 46.95244 15.24711 34185 ft 435 kts 313°
2026-04-07 13:00 46.99218 15.18039 34180 ft 435 kts 313°
2026-04-07 13:01 47.03160 15.11409 34165 ft 434 kts 313°
2026-04-07 13:01 47.07115 15.04737 34175 ft 432 kts 313°
2026-04-07 13:02 47.11051 14.98082 34164 ft 432 kts 313°
2026-04-07 13:02 47.14983 14.91419 34182 ft 432 kts 313°
2026-04-07 13:03 47.18919 14.84734 34188 ft 433 kts 312°
2026-04-07 13:03 47.22858 14.78024 34181 ft 434 kts 312°
2026-04-07 13:04 47.26801 14.71292 34191 ft 434 kts 312°
2026-04-07 13:04 47.30730 14.64565 34158 ft 432 kts 312°
2026-04-07 13:05 47.34634 14.57867 34190 ft 430 kts 312°
2026-04-07 13:05 47.38527 14.51170 34186 ft 429 kts 312°
2026-04-07 13:06 47.42408 14.44476 34208 ft 429 kts 312°
2026-04-07 13:06 47.46294 14.37760 34217 ft 430 kts 312°
2026-04-07 13:07 47.50183 14.31021 34222 ft 431 kts 312°
2026-04-07 13:07 47.54075 14.24259 34226 ft 433 kts 312°
2026-04-07 13:08 47.57974 14.17467 34237 ft 433 kts 312°
2026-04-07 13:08 47.61868 14.10666 34253 ft 432 kts 312°
2026-04-07 13:09 47.65757 14.03859 34257 ft 432 kts 312°
2026-04-07 13:09 47.69640 13.97045 34230 ft 432 kts 311°
2026-04-07 13:10 47.73518 13.90221 34258 ft 433 kts 311°
2026-04-07 13:10 47.76750 13.84522 34265 ft 434 kts 311°
2026-04-07 13:11 47.78030 13.82260 34259 ft 434 kts 311°
2026-04-07 13:11 47.81921 13.75378 34261 ft 435 kts 311°
2026-04-07 13:12 47.85807 13.68485 34276 ft 434 kts 311°
2026-04-07 13:12 47.89680 13.61598 34262 ft 433 kts 311°
2026-04-07 13:13 47.93542 13.54711 34267 ft 432 kts 311°
2026-04-07 13:13 47.97391 13.47831 34269 ft 432 kts 311°
2026-04-07 13:14 48.01237 13.40940 34272 ft 432 kts 311°
2026-04-07 13:14 48.05082 13.34033 34276 ft 433 kts 311°
2026-04-07 13:15 48.08926 13.27108 34263 ft 433 kts 311°
2026-04-07 13:15 48.12751 13.20202 34283 ft 434 kts 311°
2026-04-07 13:16 48.16601 13.13230 34277 ft 435 kts 311°
2026-04-07 13:16 48.20457 13.06231 34275 ft 435 kts 311°
2026-04-07 13:17 48.24323 12.99248 34277 ft 435 kts 312°
2026-04-07 13:17 48.28339 12.92451 34264 ft 435 kts 313°
2026-04-07 13:18 48.31854 12.86579 34276 ft 435 kts 313°
2026-04-07 13:18 48.35880 12.79787 34277 ft 436 kts 313°
2026-04-07 13:19 48.39243 12.74071 34279 ft 436 kts 313°
2026-04-07 13:19 48.42144 12.69120 34275 ft 435 kts 313°
2026-04-07 13:20 48.46145 12.62276 34270 ft 435 kts 313°
2026-04-07 13:20 48.50109 12.55481 34279 ft 434 kts 313°
2026-04-07 13:21 48.53354 12.49905 34269 ft 434 kts 313°
2026-04-07 13:21 48.57357 12.43009 34270 ft 434 kts 313°
2026-04-07 13:22 48.61292 12.36214 34276 ft 434 kts 313°
2026-04-07 13:22 48.65271 12.29324 34287 ft 433 kts 313°
2026-04-07 13:23 48.69231 12.22452 34267 ft 433 kts 313°
2026-04-07 13:23 48.73063 12.15421 34272 ft 435 kts 304°
2026-04-07 13:24 48.75553 12.07034 34278 ft 440 kts 289°
2026-04-07 13:24 48.76655 11.97866 34284 ft 444 kts 282°
2026-04-07 13:25 48.77431 11.89966 34281 ft 444 kts 282°
2026-04-07 13:25 48.78382 11.80716 34275 ft 445 kts 282°
2026-04-07 13:26 48.79360 11.71439 34289 ft 446 kts 282°
2026-04-07 13:26 48.80332 11.62149 34294 ft 446 kts 282°
2026-04-07 13:27 48.81307 11.52845 34293 ft 447 kts 282°
2026-04-07 13:27 48.82278 11.43533 34290 ft 447 kts 282°
2026-04-07 13:28 48.83243 11.34202 34284 ft 447 kts 282°
2026-04-07 13:28 48.84502 11.25021 34284 ft 441 kts 295°
2026-04-07 13:29 48.87726 11.17225 34297 ft 436 kts 315°
2026-04-07 13:29 48.92244 11.11087 34289 ft 436 kts 320°
2026-04-07 13:30 48.96722 11.04934 34161 ft 428 kts 319°
2026-04-07 13:30 48.98905 11.01864 33560 ft 426 kts 318°
2026-04-07 13:30 49.01065 10.98808 33057 ft 421 kts 318°
2026-04-07 13:30 49.03201 10.95785 32559 ft 417 kts 319°
2026-04-07 13:31 49.05319 10.92793 32052 ft 413 kts 319°
2026-04-07 13:31 49.07415 10.89830 31542 ft 409 kts 319°
2026-04-07 13:31 49.09498 10.86886 31044 ft 406 kts 319°
2026-04-07 13:31 49.11562 10.83974 30555 ft 402 kts 319°
2026-04-07 13:32 49.13609 10.81084 30025 ft 399 kts 319°
2026-04-07 13:32 49.15635 10.78220 29489 ft 396 kts 319°
2026-04-07 13:32 49.17646 10.75374 28975 ft 391 kts 319°
2026-04-07 13:32 49.19629 10.72562 28500 ft 387 kts 319°
2026-04-07 13:33 49.21527 10.69736 28018 ft 384 kts 316°
2026-04-07 13:33 49.25215 10.63863 27059 ft 378 kts 315°
2026-04-07 13:33 49.27028 10.60963 26604 ft 375 kts 315°
2026-04-07 13:34 49.28834 10.58092 26127 ft 373 kts 316°
2026-04-07 13:34 49.30632 10.55247 25691 ft 371 kts 316°
2026-04-07 13:34 49.32422 10.52421 25256 ft 369 kts 316°
2026-04-07 13:34 49.34205 10.49603 24808 ft 367 kts 316°
2026-04-07 13:35 49.35974 10.46795 24370 ft 365 kts 315°
2026-04-07 13:35 49.37580 10.43797 24070 ft 361 kts 308°
2026-04-07 13:35 49.39011 10.40652 23746 ft 358 kts 306°
2026-04-07 13:35 49.40390 10.37489 23399 ft 356 kts 306°
2026-04-07 13:36 49.41771 10.34334 23109 ft 356 kts 306°
2026-04-07 13:36 49.43172 10.31179 22785 ft 358 kts 307°
2026-04-07 13:36 49.44583 10.28034 22495 ft 358 kts 307°
2026-04-07 13:36 49.46001 10.24894 22202 ft 357 kts 307°
2026-04-07 13:37 49.47419 10.21762 21884 ft 357 kts 307°
2026-04-07 13:37 49.48836 10.18636 21613 ft 356 kts 307°
2026-04-07 13:37 49.50249 10.15517 21318 ft 354 kts 307°
2026-04-07 13:37 49.51653 10.12411 21027 ft 353 kts 307°
2026-04-07 13:38 49.53052 10.09314 20742 ft 351 kts 307°
2026-04-07 13:38 49.54439 10.06240 20455 ft 349 kts 307°
2026-04-07 13:38 49.55821 10.03177 20154 ft 347 kts 307°
2026-04-07 13:38 49.57193 10.00132 19891 ft 345 kts 307°
2026-04-07 13:39 49.58556 9.97105 19615 ft 343 kts 307°
2026-04-07 13:39 49.59895 9.94125 19342 ft 341 kts 307°
2026-04-07 13:39 49.61260 9.91084 19038 ft 340 kts 307°
2026-04-07 13:39 49.62584 9.88131 18769 ft 338 kts 307°
2026-04-07 13:40 49.63917 9.85154 18488 ft 337 kts 306°
2026-04-07 13:40 49.65249 9.82176 18189 ft 336 kts 306°
2026-04-07 13:40 49.66571 9.79216 17898 ft 334 kts 306°
2026-04-07 13:40 49.67885 9.76271 17612 ft 332 kts 306°
2026-04-07 13:41 49.69194 9.73338 17340 ft 331 kts 306°
2026-04-07 13:41 49.70496 9.70416 17072 ft 330 kts 306°
2026-04-07 13:41 49.71794 9.67500 16805 ft 329 kts 306°
2026-04-07 13:41 49.73086 9.64593 16534 ft 328 kts 306°
2026-04-07 13:42 49.74375 9.61687 16261 ft 327 kts 306°
2026-04-07 13:42 49.75660 9.58789 15998 ft 326 kts 306°
2026-04-07 13:42 49.76940 9.55899 15704 ft 325 kts 306°
2026-04-07 13:42 49.78212 9.53022 15407 ft 324 kts 306°
2026-04-07 13:43 49.79485 9.50143 15039 ft 324 kts 306°
2026-04-07 13:43 49.80756 9.47263 14737 ft 324 kts 306°
2026-04-07 13:43 49.82020 9.44390 14442 ft 322 kts 307°
2026-04-07 13:43 49.83284 9.41527 14126 ft 322 kts 306°
2026-04-07 13:44 49.84541 9.38669 13736 ft 321 kts 306°
2026-04-07 13:44 49.85796 9.35814 13346 ft 319 kts 306°
2026-04-07 13:44 49.87034 9.32992 12965 ft 315 kts 306°
2026-04-07 13:44 49.88262 9.30192 12565 ft 312 kts 306°
2026-04-07 13:45 49.89481 9.27412 12205 ft 311 kts 306°
2026-04-07 13:45 49.90498 9.24509 11787 ft 308 kts 290°
2026-04-07 13:45 49.91042 9.21290 11449 ft 310 kts 286°
2026-04-07 13:45 49.91538 9.18005 11095 ft 315 kts 285°
2026-04-07 13:46 49.92029 9.14686 10745 ft 316 kts 285°
2026-04-07 13:46 49.92514 9.11370 10393 ft 313 kts 285°
2026-04-07 13:46 49.92992 9.08082 10316 ft 313 kts 285°
2026-04-07 13:46 49.93473 9.04777 10311 ft 314 kts 285°
2026-04-07 13:47 49.93951 9.01487 10303 ft 310 kts 285°
2026-04-07 13:47 49.94425 8.98227 10302 ft 309 kts 285°
2026-04-07 13:47 49.94897 8.94971 10307 ft 309 kts 285°
2026-04-07 13:47 49.95367 8.91716 10313 ft 310 kts 285°
2026-04-07 13:48 49.95839 8.88450 10314 ft 310 kts 285°
2026-04-07 13:48 49.96310 8.85180 10312 ft 310 kts 285°
2026-04-07 13:48 49.96782 8.81908 10315 ft 310 kts 285°
2026-04-07 13:48 49.97252 8.78635 10314 ft 311 kts 285°
2026-04-07 13:49 49.97720 8.75362 10322 ft 311 kts 285°
2026-04-07 13:49 49.98066 8.72085 10310 ft 308 kts 272°
2026-04-07 13:49 49.97623 8.68822 10321 ft 311 kts 251°
2026-04-07 13:49 49.96821 8.65649 10334 ft 320 kts 251°
2026-04-07 13:50 49.96025 8.62406 10333 ft 322 kts 251°
2026-04-07 13:50 49.95238 8.59165 10264 ft 320 kts 252°
2026-04-07 13:50 49.94452 8.55911 9921 ft 323 kts 252°
2026-04-07 13:50 49.93676 8.52703 9503 ft 307 kts 251°
2026-04-07 13:51 49.92952 8.49721 9080 ft 285 kts 252°
2026-04-07 13:51 49.92278 8.46933 8669 ft 267 kts 252°
2026-04-07 13:51 49.91647 8.44316 8252 ft 253 kts 252°
2026-04-07 13:51 49.91032 8.41765 7893 ft 254 kts 252°
2026-04-07 13:52 49.90409 8.39182 7537 ft 255 kts 252°
2026-04-07 13:52 49.89794 8.36624 7316 ft 250 kts 252°
2026-04-07 13:52 49.89190 8.34135 7302 ft 245 kts 251°
2026-04-07 13:52 49.88589 8.31657 7304 ft 247 kts 251°
2026-04-07 13:53 49.87979 8.29141 7314 ft 251 kts 252°
2026-04-07 13:53 49.87369 8.26618 7311 ft 249 kts 251°
2026-04-07 13:53 49.86757 8.24108 7192 ft 251 kts 251°
2026-04-07 13:53 49.86133 8.21554 6951 ft 255 kts 251°
2026-04-07 13:54 49.85511 8.18997 6711 ft 252 kts 251°
2026-04-07 13:54 49.84896 8.16478 6435 ft 248 kts 251°
2026-04-07 13:54 49.84290 8.13996 6178 ft 244 kts 251°
2026-04-07 13:54 49.83741 8.11527 5898 ft 240 kts 262°
2026-04-07 13:55 49.83852 8.09007 5649 ft 236 kts 294°
2026-04-07 13:55 49.84808 8.06972 5452 ft 238 kts 325°
2026-04-07 13:55 49.86325 8.05986 5194 ft 239 kts 355°
2026-04-07 13:55 49.87926 8.06360 4957 ft 229 kts 27°
2026-04-07 13:56 49.89170 8.07803 4813 ft 221 kts 43°
2026-04-07 13:56 49.90306 8.09427 4662 ft 224 kts 43°
2026-04-07 13:56 49.91455 8.11085 4524 ft 227 kts 43°
2026-04-07 13:56 49.92604 8.12761 4349 ft 225 kts 47°
2026-04-07 13:57 49.93414 8.14789 4251 ft 222 kts 66°
2026-04-07 13:57 49.94027 8.17050 4133 ft 231 kts 67°
2026-04-07 13:57 49.94622 8.19337 4110 ft 227 kts 68°
2026-04-07 13:57 49.95191 8.21665 4019 ft 226 kts 69°
2026-04-07 13:58 49.95728 8.23924 3998 ft 217 kts 69°
2026-04-07 13:58 49.96224 8.26029 3971 ft 203 kts 69°
2026-04-07 13:58 49.96704 8.28033 3773 ft 196 kts 69°
2026-04-07 13:58 49.97176 8.30002 3541 ft 198 kts 69°
2026-04-07 13:59 49.97663 8.32019 3236 ft 200 kts 69°
2026-04-07 13:59 49.98138 8.34017 2990 ft 195 kts 68°
2026-04-07 13:59 49.98609 8.35998 2696 ft 195 kts 69°
2026-04-07 13:59 49.99066 8.37931 2462 ft 190 kts 69°
2026-04-07 14:00 49.99526 8.39853 2219 ft 188 kts 69°
2026-04-07 14:00 49.99967 8.41699 1930 ft 175 kts 68°
2026-04-07 14:00 50.00367 8.43393 1723 ft 159 kts 66°
2026-04-07 14:00 50.00734 8.44917 1454 ft 140 kts 66°
2026-04-07 14:01 50.01064 8.46302 1357 ft 140 kts 68°
2026-04-07 14:01 50.01395 8.47683 1135 ft 130 kts 68°
2026-04-07 14:01 50.01702 8.48983 953 ft 129 kts 67°
2026-04-07 14:01 50.01910 8.49854 848 ft 131 kts 68°
2026-04-07 14:02 50.02224 8.51215 679 ft 136 kts 66°
2026-04-07 14:02 50.02557 8.52596 508 ft 136 kts 66°
2026-04-07 14:02 50.02888 8.53982 355 ft 136 kts 68°
2026-04-07 14:02 50.03184 8.55208 359 ft 101 kts 69°
2026-04-07 14:03 50.03375 8.56010 358 ft 57 kts 69°
2026-04-07 14:03 50.03517 8.56343 360 ft 23 kts 40°
2026-04-07 14:03 50.03603 8.56456 362 ft 15 kts 39°
2026-04-07 14:03 50.03684 8.56560 363 ft 15 kts 39°
2026-04-07 14:04 50.03720 8.56604 365 ft 2 kts 38°
2026-04-07 14:04 50.03729 8.56616 365 ft 2 kts 38°
2026-04-07 14:04 50.03742 8.56631 366 ft 4 kts 38°
2026-04-07 14:04 50.03784 8.56707 366 ft 16 kts 62°
2026-04-07 14:05 50.03831 8.56888 365 ft 18 kts 69°
2026-04-07 14:05 50.03875 8.57072 365 ft 18 kts 69°
2026-04-07 14:05 50.03920 8.57257 367 ft 18 kts 69°
2026-04-07 14:05 50.03964 8.57441 372 ft 18 kts 70°
2026-04-07 14:06 50.04008 8.57626 371 ft 18 kts 70°
2026-04-07 14:06 50.04052 8.57811 375 ft 18 kts 70°
2026-04-07 14:06 50.04096 8.57996 375 ft 18 kts 69°
2026-04-07 14:06 50.04156 8.58142 377 ft 16 kts 33°
2026-04-07 14:07 50.04266 8.58201 375 ft 17 kts 358°
2026-04-07 14:07 50.04342 8.58170 375 ft 10 kts 341°
2026-04-07 14:07 50.04413 8.58130 373 ft 12 kts 341°
2026-04-07 14:07 50.04509 8.58071 372 ft 16 kts 332°
2026-04-07 14:08 50.04519 8.57919 369 ft 17 kts 249°
2026-04-07 14:08 50.04473 8.57726 370 ft 21 kts 250°
2026-04-07 14:08 50.04424 8.57529 368 ft 6 kts 250°
2026-04-07 14:08 50.04404 8.57442 370 ft 10 kts 250°
2026-04-07 14:09 50.04375 8.57317 371 ft 14 kts 250°
2026-04-07 14:09 50.04337 8.57157 368 ft 17 kts 249°
2026-04-07 14:09 50.04289 8.56959 368 ft 21 kts 250°
2026-04-07 14:09 50.04243 8.56766 367 ft 21 kts 250°
2026-04-07 14:10 50.04187 8.56529 364 ft 22 kts 249°
2026-04-07 14:10 50.04134 8.56307 358 ft 18 kts 249°
2026-04-07 14:10 50.04095 8.56143 365 ft 18 kts 250°
2026-04-07 14:10 50.04058 8.55991 360 ft 15 kts 249°
2026-04-07 14:11 50.04021 8.55835 364 ft 16 kts 249°
2026-04-07 14:11 50.03978 8.55655 359 ft 16 kts 250°
2026-04-07 14:11 50.03954 8.55525 360 ft 12 kts 274°
2026-04-07 14:11 50.04017 8.55440 363 ft 13 kts 339°
2026-04-07 14:12 50.04090 8.55354 364 ft 14 kts 281°
2026-04-07 14:12 50.04062 8.55196 360 ft 17 kts 249°
2026-04-07 14:12 50.04021 8.55033 364 ft 8 kts 250°
2026-04-07 14:12 50.03998 8.54933 362 ft 12 kts 250°
2026-04-07 14:13 50.03967 8.54802 363 ft 14 kts 249°
2026-04-07 14:13 50.03967 8.54708 363 ft 9 kts 309°
2026-04-07 14:13 50.04021 8.54660 355 ft 7 kts 316°
2026-04-07 14:13 50.04019 8.54611 357 ft 5 kts 254°
2026-04-07 14:14 50.04009 8.54568 361 ft 3 kts 249°
2026-04-07 14:14 50.04004 8.54548 360 ft 2 kts 249°
2026-04-07 14:14 50.04002 8.54539 360 ft 0 kts 249°